Raymondville, Texas
Current Conditions -  °F | °C
As of 9:52 PM on Monday 22 Dec 2014 (Local Time) from KHRL Reporting Station
Clear Clear  
Wind Chill: 67°   Ceiling: Unl
Heat Index: 67°   Visibility: 7mi
Dew Point: 66°   Wind: 9mph
Humidity: 97%   Direction: 180°S
Pressure: 29.63"   Gusts: NA
Location:  26.48°N, 97.78°W
Report Text: KHRL 230352Z 18008KT 7SM CLR 19/19 A2963 RMK AO2 SLP032 T01940189
Loading
Personal Weather Stations






























Interactive Weather Map New forecast layout! Learn more

10-Day Weather Forecast

Advertisements
Track Severe Weather on mobile